createdAt,value
2022-08-02T00:00:10.982Z,4.25
2022-08-02T00:02:37.817Z,4.15
2022-08-02T00:05:08.296Z,4.50
2022-08-02T00:07:41.135Z,4.38
2022-08-02T00:10:09.889Z,3.97
2022-08-02T00:12:36.851Z,4.07
2022-08-02T00:15:05.427Z,3.83
2022-08-02T00:17:32.086Z,4.30
2022-08-02T00:19:58.790Z,3.92
2022-08-02T00:22:25.670Z,4.40
2022-08-02T00:24:52.308Z,4.65
2022-08-02T00:27:20.800Z,4.15
2022-08-02T00:29:52.491Z,4.25
2022-08-02T00:32:20.344Z,4.32
2022-08-02T00:34:46.981Z,3.72
2022-08-02T00:37:13.860Z,3.85
2022-08-02T00:39:40.581Z,4.15
2022-08-02T00:42:07.739Z,4.20
2022-08-02T00:44:34.499Z,4.25
2022-08-02T00:47:04.433Z,4.00
2022-08-02T00:49:32.096Z,4.32
2022-08-02T00:52:00.426Z,4.32
2022-08-02T00:54:27.385Z,3.88
2022-08-02T00:56:54.116Z,3.95
2022-08-02T00:59:20.841Z,4.45
2022-08-02T01:01:56.675Z,4.00
2022-08-02T01:04:30.292Z,4.18
2022-08-02T01:07:01.210Z,4.40
2022-08-02T01:09:28.000Z,4.25
2022-08-02T01:11:54.709Z,4.47
2022-08-02T01:14:23.020Z,4.20
2022-08-02T01:17:04.068Z,4.45
2022-08-02T01:19:51.819Z,3.83
2022-08-02T01:23:00.585Z,4.05
2022-08-02T01:25:33.554Z,4.40
2022-08-02T01:28:11.998Z,4.30
2022-08-02T01:30:41.526Z,4.35
2022-08-02T01:33:08.592Z,4.10
2022-08-02T01:35:50.433Z,4.70
2022-08-02T01:38:26.218Z,4.53
2022-08-02T01:40:53.712Z,4.45
2022-08-02T01:43:21.624Z,4.32
2022-08-02T01:45:48.537Z,4.40
2022-08-02T01:48:18.347Z,4.25
2022-08-02T01:50:46.896Z,4.53
2022-08-02T01:53:14.296Z,4.05
2022-08-02T01:55:58.372Z,4.72
2022-08-02T01:58:30.060Z,4.25
2022-08-02T02:00:58.090Z,4.03
2022-08-02T02:03:25.901Z,4.53
2022-08-02T02:05:56.020Z,4.13
2022-08-02T02:08:30.284Z,4.60
2022-08-02T02:13:33.208Z,3.67
2022-08-02T02:16:03.990Z,4.53
2022-08-02T02:18:31.006Z,4.65
2022-08-02T02:20:58.339Z,4.45
2022-08-02T02:23:26.700Z,4.53
2022-08-02T02:25:59.587Z,4.50
2022-08-02T02:28:31.639Z,4.25
2022-08-02T02:31:08.863Z,4.07
2022-08-02T02:33:40.444Z,4.53
2022-08-02T02:36:08.219Z,4.40
2022-08-02T02:38:36.455Z,3.85
2022-08-02T02:41:04.534Z,4.40
2022-08-02T02:43:32.988Z,4.72
2022-08-02T02:46:01.197Z,4.20
2022-08-02T02:48:28.012Z,4.63
2022-08-02T02:50:54.716Z,4.70
2022-08-02T02:53:22.757Z,4.28
2022-08-02T02:56:01.926Z,4.38
2022-08-02T02:58:30.635Z,4.30
2022-08-02T03:01:16.284Z,4.03
2022-08-02T03:03:44.916Z,4.50
2022-08-02T03:06:15.049Z,4.32
2022-08-02T03:08:42.523Z,4.93
2022-08-02T03:11:09.892Z,3.80
2022-08-02T03:13:37.739Z,4.03
2022-08-02T03:16:07.535Z,3.63
2022-08-02T03:18:38.406Z,3.85
2022-08-02T03:21:07.289Z,4.15
2022-08-02T03:23:34.674Z,3.75
2022-08-02T03:26:01.786Z,4.10
2022-08-02T03:28:28.542Z,4.10
2022-08-02T03:30:55.299Z,4.32
2022-08-02T03:33:22.519Z,4.15
2022-08-02T03:35:50.511Z,4.25
2022-08-02T03:38:29.063Z,4.05
2022-08-02T03:40:57.820Z,4.10
2022-08-02T03:43:25.141Z,4.40
2022-08-02T03:45:55.998Z,4.32
2022-08-02T03:48:34.897Z,3.78
2022-08-02T03:51:02.389Z,3.78
2022-08-02T03:53:29.602Z,3.83
2022-08-02T03:55:56.499Z,3.90
2022-08-02T03:58:24.157Z,3.70
2022-08-02T04:00:52.880Z,4.20
2022-08-02T04:03:19.834Z,4.00
2022-08-02T04:06:04.134Z,3.80
2022-08-02T04:08:37.669Z,4.15
2022-08-02T04:11:31.212Z,3.75
2022-08-02T04:14:03.895Z,3.92
2022-08-02T04:16:42.630Z,3.92
2022-08-02T04:19:15.213Z,4.43
2022-08-02T04:21:51.486Z,3.97
2022-08-02T04:24:24.392Z,3.83
2022-08-02T04:26:53.954Z,4.60
2022-08-02T04:29:24.532Z,4.35
2022-08-02T04:31:51.698Z,4.10
2022-08-02T04:34:20.462Z,4.15
2022-08-02T04:36:47.634Z,3.33
2022-08-02T04:39:15.133Z,3.65
2022-08-02T04:41:44.534Z,3.97
2022-08-02T04:44:12.168Z,4.03
2022-08-02T04:46:39.720Z,3.72
2022-08-02T04:49:06.645Z,4.00
2022-08-02T04:51:37.759Z,3.80
2022-08-02T04:54:06.338Z,4.00
2022-08-02T04:56:37.518Z,4.03
2022-08-02T04:59:04.175Z,3.35
2022-08-02T05:01:33.065Z,4.30
2022-08-02T05:04:00.341Z,4.38
2022-08-02T05:06:27.261Z,4.20
2022-08-02T05:08:53.962Z,5.10
2022-08-02T05:11:22.102Z,5.00
2022-08-02T05:13:58.700Z,5.10
2022-08-02T05:16:31.475Z,4.43
2022-08-02T05:19:02.242Z,3.47
2022-08-02T05:21:29.920Z,3.75
2022-08-02T05:23:56.879Z,3.60
2022-08-02T05:26:23.608Z,3.97
2022-08-02T05:28:50.230Z,3.58
2022-08-02T05:31:16.929Z,3.13
2022-08-02T05:33:43.738Z,3.40
2022-08-02T05:36:10.353Z,4.20
2022-08-02T05:38:37.778Z,3.45
2022-08-02T05:41:05.812Z,3.65
2022-08-02T05:43:32.666Z,3.63
2022-08-02T05:45:59.299Z,3.13
2022-08-02T05:48:31.085Z,3.22
2022-08-02T05:51:13.078Z,3.47
2022-08-02T05:53:48.606Z,3.22
2022-08-02T05:56:28.671Z,4.00
2022-08-02T05:59:16.507Z,3.75
2022-08-02T06:01:43.987Z,3.40
2022-08-02T06:04:11.865Z,4.20
2022-08-02T06:06:43.934Z,4.00
2022-08-02T06:09:15.673Z,3.47
2022-08-02T06:12:02.661Z,3.80
2022-08-02T06:14:33.534Z,3.40
2022-08-02T06:17:09.676Z,3.30
2022-08-02T06:19:51.988Z,3.22
2022-08-02T06:22:40.609Z,2.80
2022-08-02T06:25:11.618Z,3.10
2022-08-02T06:27:55.092Z,2.78
2022-08-02T06:30:22.187Z,3.40
2022-08-02T06:32:51.597Z,3.42
2022-08-02T06:35:18.487Z,2.67
2022-08-02T06:37:51.469Z,2.75
2022-08-02T06:40:44.180Z,3.25
2022-08-02T06:43:16.719Z,3.85
2022-08-02T06:45:43.735Z,3.03
2022-08-02T06:48:10.711Z,2.88
2022-08-02T06:50:38.857Z,3.65
2022-08-02T06:53:06.337Z,2.78
2022-08-02T06:55:33.217Z,3.15
2022-08-02T06:58:10.539Z,2.60
2022-08-02T07:00:37.234Z,2.90
2022-08-02T07:03:04.889Z,3.08
2022-08-02T07:05:31.517Z,2.92
2022-08-02T07:07:58.143Z,3.10
2022-08-02T07:10:25.158Z,3.20
2022-08-02T07:12:51.814Z,2.67
2022-08-02T07:15:18.406Z,2.00
2022-08-02T07:17:45.047Z,2.47
2022-08-02T07:20:13.357Z,3.00
2022-08-02T07:22:40.019Z,2.40
2022-08-02T07:25:07.160Z,2.35
2022-08-02T07:27:34.079Z,2.33
2022-08-02T07:30:00.724Z,2.13
2022-08-02T07:32:30.227Z,2.65
2022-08-02T07:34:57.227Z,2.38
2022-08-02T07:37:54.230Z,2.20
2022-08-02T07:40:20.385Z,2.33
2022-08-02T07:42:49.726Z,2.15
2022-08-02T07:45:16.561Z,2.47
2022-08-02T07:47:44.743Z,2.45
2022-08-02T07:50:12.666Z,2.47
2022-08-02T07:52:40.826Z,2.50
2022-08-02T07:55:08.806Z,2.55
2022-08-02T07:57:36.361Z,2.85
2022-08-02T08:00:04.759Z,2.90
2022-08-02T08:02:31.420Z,4.13
2022-08-02T08:04:58.558Z,2.13
2022-08-02T08:07:25.512Z,3.05
2022-08-02T08:09:56.655Z,2.03
2022-08-02T08:12:23.849Z,2.20
2022-08-02T08:14:50.560Z,2.30
2022-08-02T08:17:17.427Z,2.63
2022-08-02T08:19:50.833Z,2.63
2022-08-02T08:22:19.983Z,2.97
2022-08-02T08:24:48.094Z,2.35
2022-08-02T08:27:15.691Z,2.13
2022-08-02T08:29:43.077Z,2.65
2022-08-02T08:32:15.827Z,2.17
2022-08-02T08:34:43.756Z,3.20
2022-08-02T08:37:16.786Z,2.10
2022-08-02T08:39:56.586Z,2.10
2022-08-02T08:42:28.483Z,2.50
2022-08-02T08:44:56.610Z,2.53
2022-08-02T08:47:26.634Z,2.50
2022-08-02T08:50:04.585Z,2.03
2022-08-02T08:52:35.938Z,2.90
2022-08-02T08:55:04.692Z,2.40
2022-08-02T08:57:32.396Z,2.20
2022-08-02T08:59:59.221Z,2.38
2022-08-02T09:02:28.344Z,1.90
2022-08-02T09:04:55.740Z,2.33
2022-08-02T09:07:23.433Z,1.95
2022-08-02T09:09:50.090Z,2.22
2022-08-02T09:12:22.232Z,2.78
2022-08-02T09:14:50.140Z,2.20
2022-08-02T09:17:17.926Z,2.17
2022-08-02T09:19:46.018Z,2.13
2022-08-02T09:22:15.295Z,2.65
2022-08-02T09:24:48.383Z,2.10
2022-08-02T09:27:17.629Z,2.08
2022-08-02T09:32:46.553Z,2.28
2022-08-02T09:35:15.169Z,1.73
2022-08-02T09:38:16.874Z,2.40
2022-08-02T09:45:16.567Z,1.90
2022-08-02T09:47:49.126Z,1.83
2022-08-02T09:50:15.726Z,2.10
2022-08-02T09:52:44.039Z,2.20
2022-08-02T09:55:11.822Z,2.10
2022-08-02T09:57:38.762Z,2.00
2022-08-02T10:00:16.156Z,2.03
2022-08-02T10:03:11.111Z,2.08
2022-08-02T10:06:01.184Z,1.92
2022-08-02T10:08:33.068Z,2.20
2022-08-02T10:11:01.058Z,2.83
2022-08-02T10:13:32.082Z,2.30
2022-08-02T10:15:58.984Z,2.00
2022-08-02T10:18:38.294Z,1.85
2022-08-02T10:21:08.102Z,1.80
2022-08-02T10:23:36.567Z,2.30
2022-08-02T10:26:03.471Z,2.00
2022-08-02T10:28:31.668Z,1.92
2022-08-02T10:30:59.976Z,1.88
2022-08-02T10:33:28.002Z,2.45
2022-08-02T10:36:04.517Z,1.83
2022-08-02T10:38:35.155Z,1.98
2022-08-02T10:41:01.821Z,2.20
2022-08-02T10:43:31.426Z,1.90
2022-08-02T10:46:33.461Z,1.90
2022-08-02T10:49:38.006Z,2.38
2022-08-02T10:52:02.684Z,2.33
2022-08-02T10:54:40.938Z,2.10
2022-08-02T10:57:21.582Z,2.40
2022-08-02T10:59:50.129Z,2.28
2022-08-02T11:02:33.314Z,2.08
2022-08-02T11:04:59.886Z,2.17
2022-08-02T11:07:38.254Z,2.20
2022-08-02T11:10:30.569Z,1.90
2022-08-02T11:13:06.429Z,1.92
2022-08-02T11:15:48.288Z,2.47
2022-08-02T11:18:15.341Z,2.10
2022-08-02T11:20:42.080Z,1.80
2022-08-02T11:23:45.052Z,2.28
2022-08-02T11:26:30.879Z,2.35
2022-08-02T11:28:58.233Z,1.95
2022-08-02T11:31:29.005Z,1.65
2022-08-02T11:33:55.816Z,1.60
2022-08-02T11:36:24.459Z,2.00
2022-08-02T11:39:09.014Z,1.60
2022-08-02T11:41:46.106Z,1.75
2022-08-02T11:44:13.580Z,1.85
2022-08-02T11:46:40.680Z,2.10
2022-08-02T11:49:16.083Z,1.88
2022-08-02T11:52:01.833Z,1.83
2022-08-02T11:54:31.732Z,2.20
2022-08-02T11:57:19.377Z,3.33
2022-08-02T11:59:49.416Z,1.48
2022-08-02T12:02:17.643Z,1.63
2022-08-02T12:05:03.541Z,2.20
2022-08-02T12:07:36.273Z,1.90
2022-08-02T12:10:06.688Z,2.20
2022-08-02T12:12:33.637Z,2.03
2022-08-02T12:15:00.294Z,1.70
2022-08-02T12:17:47.743Z,2.00
2022-08-02T12:20:14.911Z,1.42
2022-08-02T12:22:42.025Z,2.33
2022-08-02T12:25:33.585Z,1.88
2022-08-02T12:28:34.991Z,1.90
2022-08-02T12:31:02.085Z,1.48
2022-08-02T12:33:45.398Z,1.85
2022-08-02T12:36:23.239Z,2.08
2022-08-02T12:39:00.897Z,1.70
2022-08-02T12:41:30.959Z,1.92
2022-08-02T12:43:59.710Z,1.83
2022-08-02T12:46:26.815Z,3.55
2022-08-02T12:49:16.490Z,1.45
2022-08-02T12:51:55.630Z,2.58
2022-08-02T12:54:31.712Z,1.60
2022-08-02T12:57:11.156Z,2.38
2022-08-02T12:59:39.830Z,1.70
2022-08-02T13:02:08.703Z,1.80
2022-08-02T13:04:35.539Z,2.05
2022-08-02T13:07:02.932Z,1.70
2022-08-02T13:09:36.191Z,1.80
2022-08-02T13:12:03.592Z,1.73
2022-08-02T13:14:30.352Z,2.90
2022-08-02T13:16:57.021Z,2.00
2022-08-02T13:19:23.682Z,2.00
2022-08-02T13:22:00.973Z,2.10
2022-08-02T13:24:40.641Z,1.60
2022-08-02T13:27:21.151Z,1.80
2022-08-02T13:29:49.263Z,1.90
2022-08-02T13:32:16.645Z,1.70
2022-08-02T13:34:44.019Z,1.95
2022-08-02T16:08:10.246Z,1.83
2022-08-02T16:10:36.863Z,1.70
2022-08-02T16:13:23.402Z,2.03
2022-08-02T16:15:50.571Z,2.20
2022-08-02T16:18:17.193Z,1.70
2022-08-02T16:20:43.809Z,2.05
2022-08-02T16:23:10.379Z,2.00
2022-08-02T16:25:41.975Z,2.33
2022-08-02T16:28:08.875Z,2.22
2022-08-02T16:30:35.863Z,2.88
2022-08-02T16:33:02.834Z,1.80
2022-08-02T16:35:29.496Z,2.10
2022-08-02T16:37:56.454Z,2.35
2022-08-02T16:40:23.156Z,1.83
2022-08-02T16:42:50.525Z,1.88
2022-08-02T16:45:24.279Z,1.77
2022-08-02T16:48:00.499Z,1.70
2022-08-02T16:50:29.991Z,2.22
2022-08-02T16:52:57.775Z,2.15
2022-08-02T16:55:25.512Z,2.05
2022-08-02T16:57:52.768Z,2.33
2022-08-02T17:00:24.292Z,2.22
2022-08-02T17:02:51.020Z,1.88
2022-08-02T17:05:18.187Z,2.45
2022-08-02T17:08:10.475Z,2.10
2022-08-02T17:10:34.639Z,2.20
2022-08-02T17:13:12.149Z,1.90
2022-08-02T17:16:16.187Z,2.03
2022-08-02T17:18:28.641Z,1.80
2022-08-02T17:20:55.633Z,1.77
2022-08-02T17:23:22.364Z,2.20
2022-08-02T17:25:52.490Z,2.30
2022-08-02T17:28:19.497Z,2.05
2022-08-02T17:30:46.150Z,2.50
2022-08-02T17:33:13.120Z,5.43
2022-08-02T17:35:52.085Z,2.92
2022-08-02T17:41:06.942Z,1.73
2022-08-02T17:43:41.884Z,2.20
2022-08-02T17:46:08.656Z,2.25
2022-08-02T17:48:55.558Z,1.90
2022-08-02T17:52:15.897Z,1.67
2022-08-02T17:54:12.855Z,2.45
2022-08-02T17:56:42.313Z,1.70
2022-08-02T17:59:20.691Z,2.00
2022-08-02T18:01:52.907Z,2.00
2022-08-02T18:04:20.258Z,2.00
2022-08-02T18:06:59.827Z,2.22
2022-08-02T18:09:31.752Z,1.73
2022-08-02T18:11:58.473Z,2.17
2022-08-02T18:14:26.371Z,2.15
2022-08-02T18:16:53.403Z,2.00
2022-08-02T18:19:20.496Z,2.33
2022-08-02T18:21:48.117Z,2.00
2022-08-02T18:24:15.809Z,1.90
2022-08-02T18:26:43.432Z,2.47
2022-08-02T18:29:12.197Z,2.88
2022-08-02T18:31:40.153Z,3.40
2022-08-02T18:34:17.466Z,2.97
2022-08-02T18:36:47.164Z,3.22
2022-08-02T18:39:15.031Z,2.30
2022-08-02T18:41:44.288Z,3.25
2022-08-02T18:44:15.880Z,2.70
2022-08-02T18:46:43.384Z,3.30
2022-08-02T18:49:15.221Z,2.83
2022-08-02T18:51:42.891Z,2.90
2022-08-02T18:54:09.933Z,2.80
2022-08-02T18:56:38.870Z,2.58
2022-08-02T18:59:07.509Z,2.50
2022-08-02T19:01:39.483Z,2.40
2022-08-02T19:04:13.435Z,2.38
2022-08-02T19:06:40.092Z,2.20
2022-08-02T19:09:13.251Z,2.00
2022-08-02T19:11:54.224Z,2.30
2022-08-02T19:14:27.223Z,2.45
2022-08-02T19:19:22.153Z,2.22
2022-08-02T19:22:17.946Z,2.08
2022-08-02T19:24:37.016Z,2.50
2022-08-02T19:27:13.422Z,2.50
2022-08-02T19:29:48.982Z,2.42
2022-08-02T19:32:42.722Z,2.42
2022-08-02T19:35:19.291Z,2.53
2022-08-02T19:37:53.985Z,2.35
2022-08-02T19:40:24.187Z,2.45
2022-08-02T19:44:21.504Z,2.47
2022-08-02T19:45:49.113Z,2.55
2022-08-02T19:48:17.975Z,3.28
2022-08-02T19:50:56.713Z,2.90
2022-08-02T19:53:28.749Z,2.60
2022-08-02T19:56:00.440Z,2.70
2022-08-02T19:58:28.611Z,2.90
2022-08-02T20:00:55.295Z,3.10
2022-08-02T20:03:52.076Z,2.92
2022-08-02T20:06:08.580Z,2.78
2022-08-02T20:08:37.506Z,2.67
2022-08-02T20:11:04.164Z,2.50
2022-08-02T20:13:34.562Z,2.60
2022-08-02T20:16:20.739Z,2.80
2022-08-02T20:18:54.239Z,3.00
2022-08-02T20:21:36.132Z,3.10
2022-08-02T20:24:09.284Z,2.90
2022-08-02T20:26:38.179Z,3.50
2022-08-02T20:29:05.309Z,3.45
2022-08-02T20:31:32.413Z,2.97
2022-08-02T20:33:59.131Z,2.72
2022-08-02T20:36:26.604Z,3.17
2022-08-02T20:38:54.341Z,2.95
2022-08-02T20:41:37.299Z,3.15
2022-08-02T20:44:16.100Z,3.15
2022-08-02T20:46:56.775Z,3.30
2022-08-02T20:52:19.475Z,3.45
2022-08-02T20:54:51.230Z,3.60
2022-08-02T20:57:17.849Z,3.03
2022-08-02T20:59:44.456Z,3.00
2022-08-02T21:02:19.191Z,3.65
2022-08-02T21:04:49.923Z,3.05
2022-08-02T21:07:17.964Z,3.60
2022-08-02T21:09:52.818Z,3.20
2022-08-02T21:12:29.692Z,3.15
2022-08-02T21:14:56.734Z,3.30
2022-08-02T21:17:27.109Z,3.25
2022-08-02T21:20:10.554Z,3.42
2022-08-02T21:22:37.567Z,3.35
2022-08-02T21:25:09.054Z,3.47
2022-08-02T21:27:53.198Z,3.90
2022-08-02T21:30:21.598Z,3.42
2022-08-02T21:32:54.477Z,3.92
2022-08-02T21:35:22.669Z,3.88
2022-08-02T21:37:50.116Z,3.90
2022-08-02T21:40:24.999Z,3.35
2022-08-02T21:42:51.654Z,3.30
2022-08-02T21:45:20.005Z,3.00
2022-08-02T21:47:46.941Z,3.38
2022-08-02T21:50:16.266Z,3.80
2022-08-02T21:52:51.044Z,3.50
2022-08-02T21:55:21.288Z,3.58
2022-08-02T21:57:51.250Z,3.50
2022-08-02T22:00:18.007Z,3.42
2022-08-02T22:02:55.464Z,3.80
2022-08-02T22:05:22.169Z,3.40
2022-08-02T22:07:48.856Z,3.70
2022-08-02T22:10:17.347Z,3.55
2022-08-02T22:12:44.034Z,3.92
2022-08-02T22:15:11.658Z,3.63
2022-08-02T22:17:51.235Z,3.42
2022-08-02T22:20:21.291Z,3.20
2022-08-02T22:22:50.472Z,3.58
2022-08-02T22:25:26.615Z,3.60
2022-08-02T22:28:36.379Z,3.85
2022-08-02T22:30:56.842Z,4.00
2022-08-02T22:33:47.217Z,3.40
2022-08-02T22:36:28.203Z,3.33
2022-08-02T22:38:55.239Z,3.80
2022-08-02T22:41:22.544Z,4.20
2022-08-02T22:43:49.851Z,3.70
2022-08-02T22:46:16.797Z,3.60
2022-08-02T22:48:44.454Z,3.90
2022-08-02T22:51:13.039Z,3.35
2022-08-02T22:53:40.585Z,3.25
2022-08-02T22:56:07.312Z,3.35
2022-08-02T22:58:39.406Z,2.30
2022-08-02T22:59:06.358Z,3.78
2022-08-02T22:59:08.008Z,3.53
2022-08-02T23:01:21.741Z,3.35
2022-08-02T23:03:48.457Z,3.90
2022-08-02T23:06:17.463Z,3.85
2022-08-02T23:08:44.080Z,3.70
2022-08-02T23:11:14.210Z,3.80
2022-08-02T23:13:41.531Z,3.63
2022-08-02T23:16:26.714Z,3.38
2022-08-02T23:19:11.929Z,3.33
2022-08-02T23:22:00.923Z,3.63
2022-08-02T23:24:26.686Z,3.50
2022-08-02T23:26:53.512Z,3.83
2022-08-02T23:29:20.177Z,3.92
2022-08-02T23:31:46.861Z,3.90
2022-08-02T23:34:13.583Z,3.60
2022-08-02T23:36:40.623Z,3.90
2022-08-02T23:39:07.284Z,4.03
2022-08-02T23:41:34.744Z,3.70
2022-08-02T23:44:13.394Z,4.00
2022-08-02T23:46:44.699Z,3.88
2022-08-02T23:49:11.949Z,4.03
2022-08-02T23:51:38.638Z,3.60
2022-08-02T23:54:05.256Z,4.00
2022-08-02T23:56:31.830Z,4.05
2022-08-02T23:58:58.421Z,3.45
